aviador You're here:

KMKG Decoded Metar

MUSKEGON in MI, USA
Report Time2017-06-25 01:55:00
UTC Time2017-06-25 02:04:22
Flight Rules vfr VFR
Wind270° at 07 kt
W.Decomp.*RWY 24: 5.8 kt HW 3.9 kt RCW
RWY 32: 4.9 kt HW 5 kt LCW
W.Rank270° ranks 10
Current wind is below 270° avg. (9.1)
Visibility9999 m
Phenomena:N/A
Clouds:Few 065 Hf
Few 100 Hf
Expected CloudBase > 3,200 ft AGL from Temp-Dew spread
CeilingNone
Temp18°C (ISA +4)
Dew Point10°C (60% RH)
AAT15.6°C
QNH1015 hPa
Density Alt1,227 ft
Elevation627 ft
Report Wrong Elevation
Raw Report
KMKG 250155Z 27007KT 10SM FEW065 FEW100 18/10 A2998 RMK AO2 SLP151
T01780100=

Extra information for KMKG:More info

Metar Taf Metar & Taf Last 4 Metars F.Rules Stats Wind Profile Meteogram Temp Stats Airport Information Weather charts Add Link Nearby VenuesMetar ALERT Operation Metar Decoded Social comments

AIRNAV info for KMKG